KLM354R EHAM-EDDB
Flight info
| Callsign | KLM354R |
|---|---|
| Flight time | N/A |
| Altitude | 35000 |
| Route | SPY4V ANDIK M105 OPWOT Z612 GESTO DCT BUMIL L619 VIBIS T209 OGBER OGBO6L |
| Aircraft | B738/M-SDE2E3FGHIRWXY/LB1 |
Departure
| Time | 2026-05-06 11:31 |
|---|---|
| Airport | Amsterdam Airport Schiphol (EHAM) |
Arrival
| Time | N/A |
|---|---|
| Airport | Berlin Brandenburg Airport (EDDB) |
| Time | Latitude | Longitude | Altitude | Speed | Heading |
|---|---|---|---|---|---|
| 2026-05-06 10:55 | 52.31363 | 4.76172 | 4 ft | 0 kts | 178° |
| 2026-05-06 11:19 | 52.31382 | 4.76171 | 3 ft | 3 kts | 178° |
| 2026-05-06 11:19 | 52.31406 | 4.76169 | 2 ft | 3 kts | 178° |
| 2026-05-06 11:20 | 52.31431 | 4.76168 | 1 ft | 3 kts | 178° |
| 2026-05-06 11:20 | 52.31456 | 4.76166 | 0 ft | 3 kts | 178° |
| 2026-05-06 11:20 | 52.31482 | 4.76165 | 0 ft | 3 kts | 178° |
| 2026-05-06 11:20 | 52.31458 | 4.76159 | 0 ft | 0 kts | 279° |
| 2026-05-06 11:24 | 52.31459 | 4.76156 | 0 ft | 1 kts | 278° |
| 2026-05-06 11:24 | 52.31450 | 4.76014 | 0 ft | 14 kts | 264° |
| 2026-05-06 11:24 | 52.31442 | 4.75825 | 0 ft | 20 kts | 264° |
| 2026-05-06 11:24 | 52.31435 | 4.75604 | 2 ft | 13 kts | 268° |
| 2026-05-06 11:25 | 52.31430 | 4.75447 | 1 ft | 16 kts | 266° |
| 2026-05-06 11:25 | 52.31419 | 4.75215 | -1 ft | 22 kts | 266° |
| 2026-05-06 11:25 | 52.31412 | 4.74998 | -2 ft | 10 kts | 268° |
| 2026-05-06 11:25 | 52.31410 | 4.74912 | -2 ft | 16 kts | 266° |
| 2026-05-06 11:26 | 52.31408 | 4.74861 | -3 ft | 19 kts | 266° |
| 2026-05-06 11:26 | 52.31406 | 4.74794 | -5 ft | 21 kts | 266° |
| 2026-05-06 11:26 | 52.31399 | 4.74569 | -5 ft | 19 kts | 267° |
| 2026-05-06 11:26 | 52.31391 | 4.74357 | -5 ft | 14 kts | 257° |
| 2026-05-06 11:27 | 52.31320 | 4.74272 | -4 ft | 13 kts | 183° |
| 2026-05-06 11:27 | 52.31228 | 4.74268 | -4 ft | 13 kts | 181° |
| 2026-05-06 11:27 | 52.31056 | 4.74251 | -4 ft | 18 kts | 184° |
| 2026-05-06 11:27 | 52.30920 | 4.74238 | -5 ft | 20 kts | 183° |
| 2026-05-06 11:28 | 52.30775 | 4.74223 | -8 ft | 20 kts | 184° |
| 2026-05-06 11:28 | 52.30647 | 4.74210 | -10 ft | 10 kts | 189° |
| 2026-05-06 11:28 | 52.30593 | 4.74146 | -10 ft | 10 kts | 263° |
| 2026-05-06 11:28 | 52.30561 | 4.74060 | -10 ft | 9 kts | 191° |
| 2026-05-06 11:29 | 52.30484 | 4.74056 | -11 ft | 13 kts | 181° |
| 2026-05-06 11:29 | 52.30435 | 4.74041 | -11 ft | 4 kts | 217° |
| 2026-05-06 11:29 | 52.30416 | 4.74004 | -10 ft | 5 kts | 242° |
| 2026-05-06 11:29 | 52.30407 | 4.73891 | -10 ft | 12 kts | 270° |
| 2026-05-06 11:30 | 52.30423 | 4.73772 | -9 ft | 10 kts | 324° |
| 2026-05-06 11:30 | 52.30483 | 4.73759 | -9 ft | 5 kts | 2° |
| 2026-05-06 11:30 | 52.30529 | 4.73762 | -9 ft | 9 kts | 2° |
| 2026-05-06 11:30 | 52.30903 | 4.73797 | -9 ft | 108 kts | 4° |
| 2026-05-06 11:31 | 52.31867 | 4.73889 | 55 ft | 184 kts | 4° |
| 2026-05-06 11:31 | 52.32772 | 4.73992 | 1269 ft | 166 kts | 5° |
| 2026-05-06 11:31 | 52.33872 | 4.74161 | 2232 ft | 175 kts | 6° |
| 2026-05-06 11:31 | 52.35027 | 4.74418 | 3025 ft | 188 kts | 9° |
| 2026-05-06 11:32 | 52.36351 | 4.74838 | 3871 ft | 202 kts | 13° |
| 2026-05-06 11:32 | 52.37716 | 4.75426 | 4779 ft | 211 kts | 17° |
| 2026-05-06 11:32 | 52.39098 | 4.76197 | 5732 ft | 219 kts | 21° |
| 2026-05-06 11:32 | 52.40491 | 4.77173 | 6782 ft | 227 kts | 26° |
| 2026-05-06 11:33 | 52.41840 | 4.78353 | 7972 ft | 226 kts | 31° |
| 2026-05-06 11:33 | 52.43083 | 4.79709 | 9035 ft | 229 kts | 37° |
| 2026-05-06 11:33 | 52.44258 | 4.81321 | 10028 ft | 234 kts | 44° |
| 2026-05-06 11:33 | 52.45339 | 4.83234 | 11074 ft | 236 kts | 51° |
| 2026-05-06 11:34 | 52.43843 | 4.89258 | 11423 ft | 233 kts | 300° |
| 2026-05-06 11:34 | 52.43533 | 4.86739 | 12241 ft | 244 kts | 258° |
| 2026-05-06 11:34 | 52.43248 | 4.84422 | 13154 ft | 244 kts | 259° |
| 2026-05-06 11:34 | 52.42983 | 4.81879 | 14046 ft | 247 kts | 262° |
| 2026-05-06 11:35 | 52.43068 | 4.81631 | 14409 ft | 246 kts | 64° |
| 2026-05-06 11:35 | 52.43774 | 4.84018 | 15135 ft | 256 kts | 65° |
| 2026-05-06 11:35 | 52.44441 | 4.86355 | 16034 ft | 255 kts | 66° |
| 2026-05-06 11:35 | 52.44805 | 4.87693 | 16486 ft | 257 kts | 66° |
| 2026-05-06 11:36 | 52.45490 | 4.90381 | 17362 ft | 260 kts | 69° |
| 2026-05-06 11:36 | 52.46093 | 4.93026 | 18034 ft | 269 kts | 70° |
| 2026-05-06 11:36 | 52.46931 | 4.95501 | 18499 ft | 284 kts | 46° |
| 2026-05-06 11:36 | 52.48554 | 4.97238 | 19027 ft | 298 kts | 17° |
| 2026-05-06 11:37 | 52.50440 | 4.97652 | 19514 ft | 310 kts | 359° |
| 2026-05-06 11:37 | 52.52763 | 4.97156 | 20064 ft | 326 kts | 345° |
| 2026-05-06 11:37 | 52.54833 | 4.95887 | 20538 ft | 341 kts | 333° |
| 2026-05-06 11:37 | 52.56829 | 4.93806 | 21015 ft | 355 kts | 322° |
| 2026-05-06 11:38 | 52.58812 | 4.91361 | 21480 ft | 370 kts | 327° |
| 2026-05-06 11:38 | 52.61111 | 4.89376 | 21997 ft | 382 kts | 338° |
| 2026-05-06 11:38 | 52.63690 | 4.88117 | 22692 ft | 389 kts | 349° |
| 2026-05-06 11:38 | 52.66372 | 4.87680 | 23407 ft | 394 kts | 360° |
| 2026-05-06 11:39 | 52.69108 | 4.88073 | 24125 ft | 398 kts | 10° |
| 2026-05-06 11:39 | 52.71740 | 4.89271 | 24814 ft | 403 kts | 21° |
| 2026-05-06 11:39 | 52.76164 | 4.92882 | 25965 ft | 408 kts | 31° |
| 2026-05-06 11:39 | 52.80653 | 4.98379 | 27808 ft | 403 kts | 42° |
| 2026-05-06 11:40 | 52.84430 | 5.05046 | 29530 ft | 399 kts | 51° |
| 2026-05-06 11:40 | 52.88044 | 5.11962 | 31048 ft | 396 kts | 45° |
| 2026-05-06 11:40 | 52.92097 | 5.18108 | 32456 ft | 393 kts | 40° |
| 2026-05-06 11:40 | 52.96022 | 5.24158 | 33713 ft | 391 kts | 46° |
| 2026-05-06 11:41 | 52.99551 | 5.31067 | 34925 ft | 389 kts | 53° |
| 2026-05-06 11:41 | 53.02470 | 5.38525 | 35964 ft | 387 kts | 62° |
| 2026-05-06 11:41 | 53.04266 | 5.46834 | 35987 ft | 392 kts | 82° |
| 2026-05-06 11:41 | 53.04133 | 5.55811 | 36012 ft | 388 kts | 99° |
| 2026-05-06 11:42 | 53.02909 | 5.64440 | 36004 ft | 386 kts | 105° |
| 2026-05-06 11:42 | 52.99785 | 5.81013 | 36002 ft | 387 kts | 108° |
| 2026-05-06 11:43 | 52.96403 | 5.97899 | 36002 ft | 387 kts | 108° |
| 2026-05-06 11:43 | 52.93203 | 6.14790 | 35999 ft | 387 kts | 101° |
| 2026-05-06 11:44 | 52.92771 | 6.32455 | 36003 ft | 387 kts | 81° |
| 2026-05-06 11:44 | 52.93864 | 6.41150 | 36008 ft | 396 kts | 74° |
| 2026-05-06 11:44 | 52.95484 | 6.49809 | 36003 ft | 407 kts | 71° |
| 2026-05-06 11:44 | 52.97036 | 6.57329 | 36002 ft | 415 kts | 71° |
| 2026-05-06 11:45 | 53.00591 | 6.75582 | 36002 ft | 436 kts | 73° |
| 2026-05-06 11:45 | 53.03776 | 6.94013 | 36002 ft | 454 kts | 75° |
| 2026-05-06 11:46 | 53.06689 | 7.11639 | 36002 ft | 453 kts | 75° |
| 2026-05-06 11:46 | 53.10002 | 7.31734 | 36002 ft | 453 kts | 74° |
| 2026-05-06 11:47 | 53.13282 | 7.51610 | 36002 ft | 453 kts | 74° |
| 2026-05-06 11:47 | 53.16330 | 7.70223 | 36002 ft | 453 kts | 75° |
| 2026-05-06 11:48 | 53.19593 | 7.90397 | 36002 ft | 453 kts | 75° |
| 2026-05-06 11:48 | 53.22739 | 8.10107 | 36002 ft | 453 kts | 75° |
| 2026-05-06 11:49 | 53.25652 | 8.28573 | 36002 ft | 453 kts | 75° |
| 2026-05-06 11:49 | 53.28801 | 8.48774 | 36002 ft | 453 kts | 75° |
| 2026-05-06 11:50 | 53.31795 | 8.68203 | 36002 ft | 453 kts | 76° |
| 2026-05-06 11:50 | 53.34593 | 8.88663 | 35995 ft | 452 kts | 84° |
| 2026-05-06 11:51 | 53.34417 | 8.99112 | 36009 ft | 453 kts | 98° |
| 2026-05-06 11:51 | 53.33112 | 9.09265 | 36003 ft | 453 kts | 105° |
| 2026-05-06 11:51 | 53.29438 | 9.29232 | 36002 ft | 453 kts | 107° |
| 2026-05-06 11:52 | 53.26004 | 9.49278 | 36002 ft | 453 kts | 104° |
| 2026-05-06 11:52 | 53.23073 | 9.69274 | 36002 ft | 453 kts | 103° |
| 2026-05-06 11:53 | 53.20303 | 9.88976 | 36002 ft | 453 kts | 103° |
| 2026-05-06 11:54 | 53.16047 | 10.27575 | 36002 ft | 453 kts | 93° |
| 2026-05-06 11:54 | 53.15528 | 10.48387 | 36002 ft | 453 kts | 91° |
| 2026-05-06 11:55 | 53.14943 | 10.68457 | 36002 ft | 453 kts | 94° |